Time;durP1;ratioP1;P1;durP2;ratioP2;P2;SDS_P1;SDS_P2;PMS_P1;PMS_P2;Temp;Humidity;BMP_temperature;BMP_pressure;BME280_temperature;BME280_humidity;BME280_pressure;Samples;Min_cycle;Max_cycle;Signal;HPM_P1;HPM_P2
2023/01/25 00:00:01;;;;;;;17.73;13.63;;;23.70;36.60;;;;;;5069705;28;20199;-73
2023/01/25 00:02:28;;;;;;;15.60;13.00;;;23.70;36.60;;;;;;5069348;28;20737;-70
2023/01/25 00:04:57;;;;;;;22.67;15.20;;;23.70;36.60;;;;;;5068898;28;20940;-74
2023/01/25 00:07:25;;;;;;;14.23;12.60;;;23.70;36.60;;;;;;5069447;28;20203;-71
2023/01/25 00:09:52;;;;;;;16.03;12.30;;;23.70;36.50;;;;;;5066961;28;20202;-75
2023/01/25 00:12:19;;;;;;;22.90;14.83;;;23.70;36.60;;;;;;5067341;28;20260;-73
2023/01/25 00:14:46;;;;;;;16.87;13.47;;;23.70;36.50;;;;;;5064304;28;20204;-70
2023/01/25 00:17:13;;;;;;;16.87;13.90;;;23.70;36.50;;;;;;5049520;28;20220;-71
2023/01/25 00:19:40;;;;;;;17.13;13.87;;;23.70;36.40;;;;;;5061375;28;20226;-70
2023/01/25 00:22:08;;;;;;;17.33;14.17;;;23.70;36.50;;;;;;5064153;28;20249;-79
2023/01/25 00:24:35;;;;;;;15.33;13.50;;;23.70;36.40;;;;;;5061554;28;20294;-75
2023/01/25 00:27:03;;;;;;;15.77;13.20;;;23.70;36.40;;;;;;5064012;28;20206;-68
2023/01/25 00:29:30;;;;;;;17.00;13.67;;;23.80;36.50;;;;;;5069288;28;20206;-72
2023/01/25 00:32:08;;;;;;;16.20;13.47;;;23.80;36.50;;;;;;5069358;28;20313;-78
2023/01/25 00:34:45;;;;;;;18.50;14.17;;;23.70;36.30;;;;;;5068862;28;20260;-71
2023/01/25 00:37:25;;;;;;;17.83;14.13;;;23.70;36.30;;;;;;5068657;28;20245;-80
2023/01/25 00:39:52;;;;;;;18.57;14.67;;;23.70;36.30;;;;;;5066881;28;20209;-67
2023/01/25 00:42:19;;;;;;;18.00;13.87;;;23.80;36.50;;;;;;5059785;28;20234;-69
2023/01/25 00:44:47;;;;;;;18.37;14.30;;;23.80;36.40;;;;;;5068682;28;20214;-70
2023/01/25 00:47:14;;;;;;;18.70;15.00;;;23.70;36.30;;;;;;5067694;28;20210;-69
2023/01/25 00:49:43;;;;;;;17.40;13.93;;;23.80;36.40;;;;;;5067000;28;20718;-78
2023/01/25 00:52:11;;;;;;;18.17;15.20;;;23.70;36.30;;;;;;5067120;28;20289;-70
2023/01/25 00:54:39;;;;;;;18.50;14.13;;;23.80;36.40;;;;;;5066840;28;20310;-76
2023/01/25 00:57:07;;;;;;;19.70;15.13;;;23.80;36.40;;;;;;5067508;28;20206;-73
2023/01/25 00:59:34;;;;;;;17.47;14.50;;;23.70;36.30;;;;;;5067505;28;20749;-73
2023/01/25 01:02:01;;;;;;;19.90;14.67;;;23.80;36.40;;;;;;5068110;28;20223;-69
2023/01/25 01:04:28;;;;;;;18.43;15.17;;;23.80;36.30;;;;;;5060854;28;20320;-68
2023/01/25 01:06:55;;;;;;;20.87;16.03;;;23.80;36.30;;;;;;5052838;28;20210;-77
2023/01/25 01:09:23;;;;;;;24.10;16.47;;;23.80;36.30;;;;;;5068159;28;20230;-74
2023/01/25 01:11:52;;;;;;;24.43;16.53;;;23.80;36.30;;;;;;5065179;28;20202;-67
2023/01/25 01:14:20;;;;;;;17.27;14.87;;;23.80;36.30;;;;;;5064979;28;20346;-69
2023/01/25 01:16:47;;;;;;;18.57;15.27;;;23.80;36.30;;;;;;5062986;28;20963;-70
2023/01/25 01:19:14;;;;;;;27.60;17.83;;;23.80;36.20;;;;;;5061660;28;20695;-72
2023/01/25 01:21:42;;;;;;;18.77;15.03;;;23.80;36.20;;;;;;5066407;28;20226;-67
2023/01/25 01:24:09;;;;;;;21.03;16.13;;;23.80;36.20;;;;;;5068667;28;20911;-71
2023/01/25 01:26:36;;;;;;;18.57;14.77;;;23.80;36.20;;;;;;5068444;28;20225;-67
2023/01/25 01:29:05;;;;;;;24.73;16.70;;;23.80;36.20;;;;;;5067411;28;20203;-69
2023/01/25 01:31:32;;;;;;;18.20;14.70;;;23.80;36.10;;;;;;5066189;28;20211;-67
2023/01/25 01:34:00;;;;;;;27.20;17.93;;;23.80;36.20;;;;;;5065031;28;20531;-70
2023/01/25 01:36:31;;;;;;;23.73;17.20;;;23.80;36.20;;;;;;5066949;28;20252;-68
2023/01/25 01:38:59;;;;;;;20.23;15.37;;;23.80;36.10;;;;;;5060131;28;20245;-68
2023/01/25 01:41:26;;;;;;;19.83;16.17;;;23.80;36.20;;;;;;5062647;28;20215;-70
2023/01/25 01:43:53;;;;;;;21.60;16.10;;;23.80;36.10;;;;;;5064868;28;20689;-67
2023/01/25 01:46:29;;;;;;;24.50;17.37;;;23.80;36.10;;;;;;5066538;28;20261;-67
2023/01/25 01:49:00;;;;;;;17.33;14.30;;;23.80;36.10;;;;;;5061745;28;20598;-72
2023/01/25 01:51:38;;;;;;;18.43;15.23;;;23.80;36.10;;;;;;5065835;28;20207;-68
2023/01/25 01:54:09;;;;;;;20.27;15.73;;;23.80;36.10;;;;;;5050949;28;20620;-69
2023/01/25 01:56:40;;;;;;;18.17;15.47;;;23.80;36.10;;;;;;5068001;28;20205;-68
2023/01/25 01:59:09;;;;;;;19.83;16.43;;;23.80;36.60;;;;;;5067072;28;20572;-68
2023/01/25 02:01:38;;;;;;;20.33;16.00;;;23.80;36.10;;;;;;5067770;28;20216;-72
2023/01/25 02:04:07;;;;;;;22.93;16.20;;;23.80;36.10;;;;;;5065181;28;20219;-72
2023/01/25 02:06:41;;;;;;;19.03;15.40;;;23.80;36.10;;;;;;5067762;28;20195;-67
2023/01/25 02:09:08;;;;;;;20.77;16.07;;;23.80;36.00;;;;;;5062373;28;20447;-75
2023/01/25 02:11:37;;;;;;;17.57;14.33;;;23.80;36.00;;;;;;5064750;28;20210;-70
2023/01/25 02:14:04;;;;;;;20.37;16.33;;;23.80;36.00;;;;;;5066429;28;20207;-75
2023/01/25 02:16:31;;;;;;;18.70;15.23;;;23.80;36.00;;;;;;5066649;28;20222;-73
2023/01/25 02:19:01;;;;;;;20.90;15.23;;;23.80;36.00;;;;;;5065825;28;20199;-75
2023/01/25 02:21:35;;;;;;;16.97;14.73;;;23.80;36.00;;;;;;5066392;28;20207;-77
2023/01/25 02:24:08;;;;;;;20.73;16.40;;;23.80;36.00;;;;;;5066037;28;20537;-74
2023/01/25 02:26:36;;;;;;;19.77;16.47;;;23.80;36.00;;;;;;5067611;28;20200;-75
2023/01/25 02:29:05;;;;;;;20.07;16.23;;;23.80;36.00;;;;;;5067036;28;20826;-71
2023/01/25 02:31:32;;;;;;;19.00;15.60;;;23.80;36.60;;;;;;5067362;28;20214;-73
2023/01/25 02:33:59;;;;;;;19.37;15.40;;;23.80;36.00;;;;;;5066307;28;20611;-74
2023/01/25 02:36:29;;;;;;;22.87;16.60;;;23.80;36.00;;;;;;5066172;28;20270;-72
2023/01/25 02:38:59;;;;;;;20.87;15.53;;;23.80;36.00;;;;;;5067066;28;20203;-68
2023/01/25 02:41:32;;;;;;;19.33;14.90;;;23.80;36.00;;;;;;5065190;28;20214;-68
2023/01/25 02:44:01;;;;;;;17.90;14.90;;;23.80;35.90;;;;;;5065702;28;20683;-69
2023/01/25 02:46:30;;;;;;;25.03;16.77;;;23.80;36.00;;;;;;5066870;28;20227;-71
2023/01/25 02:48:58;;;;;;;17.37;15.10;;;23.80;35.90;;;;;;5067417;28;20204;-68
2023/01/25 02:51:28;;;;;;;18.93;15.17;;;23.80;36.00;;;;;;5065151;28;20211;-71
2023/01/25 02:53:55;;;;;;;17.33;14.63;;;23.80;35.90;;;;;;5063835;28;20196;-69
2023/01/25 02:56:23;;;;;;;19.77;15.57;;;23.80;35.90;;;;;;5066571;28;20199;-71
2023/01/25 02:58:50;;;;;;;19.20;15.50;;;23.80;35.90;;;;;;5065936;28;20199;-69
2023/01/25 03:01:18;;;;;;;19.23;14.97;;;23.80;35.90;;;;;;5066580;28;20204;-69
2023/01/25 03:03:45;;;;;;;19.77;15.90;;;23.80;35.80;;;;;;5068602;28;20535;-70
2023/01/25 03:06:12;;;;;;;19.40;14.77;;;23.80;35.80;;;;;;5070596;28;20217;-73
2023/01/25 03:08:40;;;;;;;18.93;15.20;;;23.80;35.80;;;;;;5070476;28;20222;-73
2023/01/25 03:11:07;;;;;;;19.20;14.53;;;23.80;35.90;;;;;;5069027;28;20592;-67
2023/01/25 03:13:36;;;;;;;21.37;16.03;;;23.80;35.80;;;;;;5068937;28;20286;-67
2023/01/25 03:16:07;;;;;;;19.13;15.53;;;23.80;35.80;;;;;;5069951;28;20290;-74
2023/01/25 03:18:36;;;;;;;30.50;18.10;;;23.80;35.70;;;;;;5068584;28;20299;-66
2023/01/25 03:21:08;;;;;;;18.37;14.77;;;23.80;35.70;;;;;;5068847;28;20215;-73
2023/01/25 03:23:35;;;;;;;19.80;15.47;;;23.90;35.80;;;;;;5069088;28;20245;-66
2023/01/25 03:26:07;;;;;;;18.93;15.40;;;23.80;35.80;;;;;;5068947;28;20209;-66
2023/01/25 03:28:33;;;;;;;17.43;14.10;;;23.90;35.80;;;;;;5070235;28;20238;-67
2023/01/25 03:31:00;;;;;;;18.20;14.60;;;23.80;35.70;;;;;;5068939;28;20196;-66
2023/01/25 03:33:27;;;;;;;26.00;17.33;;;23.80;35.70;;;;;;5067791;28;20203;-74
2023/01/25 03:35:56;;;;;;;19.30;15.13;;;23.90;35.80;;;;;;5069722;28;20290;-75
2023/01/25 03:38:23;;;;;;;19.73;15.37;;;23.80;35.70;;;;;;5069807;28;20209;-75
2023/01/25 03:40:50;;;;;;;17.40;15.13;;;23.90;36.40;;;;;;5069226;28;20225;-73
2023/01/25 03:43:17;;;;;;;19.37;15.03;;;23.80;35.70;;;;;;5049902;28;20238;-79
2023/01/25 03:45:44;;;;;;;17.20;14.23;;;23.90;35.80;;;;;;5049414;28;20571;-70
2023/01/25 03:48:11;;;;;;;22.70;16.60;;;23.80;35.70;;;;;;5055634;28;21933;-81
2023/01/25 03:50:37;;;;;;;22.10;16.03;;;23.90;35.80;;;;;;5068603;28;20210;-76
2023/01/25 03:53:13;;;;;;;19.90;15.60;;;23.80;35.70;;;;;;5068700;28;20286;-71
2023/01/25 03:55:40;;;;;;;20.57;15.77;;;23.80;35.70;;;;;;5068751;28;20207;-67
2023/01/25 03:58:07;;;;;;;19.63;16.30;;;23.90;35.80;;;;;;5065632;28;20200;-76
2023/01/25 04:00:34;;;;;;;17.77;14.87;;;23.90;35.80;;;;;;5067977;28;20561;-73
2023/01/25 04:03:01;;;;;;;21.30;15.90;;;23.90;35.80;;;;;;5069157;28;20230;-74
2023/01/25 04:05:28;;;;;;;21.50;15.50;;;23.90;35.80;;;;;;5068386;28;20215;-75
2023/01/25 04:07:54;;;;;;;20.90;15.77;;;23.90;35.80;;;;;;5069147;28;20592;-73
2023/01/25 04:10:23;;;;;;;19.23;15.10;;;23.90;35.80;;;;;;5068836;28;20268;-68
2023/01/25 04:12:50;;;;;;;18.33;15.67;;;23.90;35.80;;;;;;5067931;28;20272;-67
2023/01/25 04:15:17;;;;;;;17.03;14.40;;;23.90;35.80;;;;;;5068046;28;21008;-67
2023/01/25 04:17:44;;;;;;;18.90;15.53;;;23.90;35.80;;;;;;5067308;28;20200;-71
2023/01/25 04:20:12;;;;;;;19.20;15.27;;;23.90;35.80;;;;;;5068342;28;20229;-67
2023/01/25 04:22:38;;;;;;;19.57;15.83;;;23.90;35.80;;;;;;5067437;28;20310;-70
2023/01/25 04:25:06;;;;;;;19.40;15.53;;;23.90;35.80;;;;;;5069130;28;20203;-71
2023/01/25 04:27:34;;;;;;;19.50;16.13;;;23.90;35.80;;;;;;5069140;28;20688;-70
2023/01/25 04:30:01;;;;;;;20.60;16.83;;;23.90;35.70;;;;;;5067946;28;20207;-75
2023/01/25 04:32:28;;;;;;;20.57;15.63;;;23.90;35.80;;;;;;5067494;28;20206;-75
2023/01/25 04:34:55;;;;;;;21.83;17.20;;;23.90;35.70;;;;;;5067175;28;20282;-70
2023/01/25 04:37:22;;;;;;;18.37;15.87;;;23.90;35.70;;;;;;5068191;28;20302;-67
2023/01/25 04:39:49;;;;;;;23.73;17.33;;;23.90;35.70;;;;;;5067866;28;20242;-67
2023/01/25 04:42:16;;;;;;;28.63;18.93;;;23.90;35.70;;;;;;5067666;28;20199;-66
2023/01/25 04:44:46;;;;;;;24.83;17.63;;;23.90;35.70;;;;;;5062150;28;20203;-68
2023/01/25 04:47:13;;;;;;;21.37;15.80;;;23.90;35.60;;;;;;5068104;28;20196;-72
2023/01/25 04:49:39;;;;;;;20.73;16.50;;;23.90;35.60;;;;;;5067784;28;20299;-77
2023/01/25 04:52:06;;;;;;;21.17;16.20;;;23.90;35.60;;;;;;5063107;28;20278;-67
2023/01/25 04:54:33;;;;;;;18.17;15.00;;;23.90;35.60;;;;;;5068437;28;20234;-67
2023/01/25 04:57:00;;;;;;;20.03;16.80;;;23.90;35.70;;;;;;5068148;28;20204;-68
2023/01/25 04:59:27;;;;;;;21.67;17.07;;;23.90;35.60;;;;;;5065989;28;20278;-67
2023/01/25 05:01:55;;;;;;;20.20;16.87;;;23.90;35.60;;;;;;5066246;28;20203;-74
2023/01/25 05:04:22;;;;;;;19.07;16.20;;;23.90;35.60;;;;;;5067598;28;20211;-75
2023/01/25 05:06:49;;;;;;;19.70;16.67;;;23.90;35.60;;;;;;5068326;28;20314;-77
2023/01/25 05:09:16;;;;;;;22.53;17.27;;;23.90;35.60;;;;;;5067455;28;20214;-75
2023/01/25 05:11:43;;;;;;;19.90;16.83;;;23.90;35.60;;;;;;5066148;28;20210;-67
2023/01/25 05:14:10;;;;;;;22.37;16.63;;;23.90;35.60;;;;;;5066201;28;20241;-68
2023/01/25 05:16:37;;;;;;;20.23;17.10;;;23.90;35.60;;;;;;5066443;28;20199;-70
2023/01/25 05:19:05;;;;;;;19.50;16.53;;;23.90;35.60;;;;;;5067585;28;20217;-67
2023/01/25 05:24:16;;;;;;;22.20;16.30;;;23.90;35.60;;;;;;5067357;28;20237;-78
2023/01/25 05:27:02;;;;;;;18.23;15.93;;;23.90;35.60;;;;;;5067810;28;20209;-77
2023/01/25 05:29:30;;;;;;;24.30;17.63;;;23.90;35.50;;;;;;5066232;28;20245;-71
2023/01/25 05:31:57;;;;;;;19.43;16.40;;;23.90;35.60;;;;;;5066186;28;20192;-76
2023/01/25 05:34:25;;;;;;;23.10;17.57;;;23.90;35.50;;;;;;5066064;28;20294;-68
2023/01/25 05:36:53;;;;;;;21.00;16.60;;;23.90;35.60;;;;;;5066625;28;20201;-68
2023/01/25 05:39:20;;;;;;;20.67;17.33;;;23.90;35.50;;;;;;5067956;28;20190;-67
2023/01/25 05:41:47;;;;;;;22.57;18.37;;;23.90;35.60;;;;;;5067928;28;20209;-67
2023/01/25 05:44:14;;;;;;;20.33;16.17;;;23.90;35.50;;;;;;5067767;28;20237;-70
2023/01/25 05:46:41;;;;;;;19.60;16.63;;;23.90;35.50;;;;;;5061748;28;20192;-67
2023/01/25 05:49:08;;;;;;;20.97;16.30;;;23.90;35.50;;;;;;5068343;28;20197;-67
2023/01/25 05:51:38;;;;;;;22.33;17.27;;;23.90;36.10;;;;;;5066630;28;20283;-68
2023/01/25 05:54:05;;;;;;;21.77;18.13;;;23.90;35.50;;;;;;5068363;28;20271;-69
2023/01/25 05:56:32;;;;;;;22.30;17.80;;;23.90;35.40;;;;;;5067823;28;20204;-67
2023/01/25 05:59:00;;;;;;;22.73;17.67;;;23.90;35.40;;;;;;5067134;28;20199;-70
2023/01/25 06:01:28;;;;;;;33.63;21.53;;;23.90;35.40;;;;;;5066387;28;20199;-78
2023/01/25 06:03:55;;;;;;;22.47;18.07;;;24.00;35.50;;;;;;5065428;28;20318;-73
2023/01/25 06:06:23;;;;;;;24.57;19.27;;;23.90;35.40;;;;;;5067334;28;20223;-72
2023/01/25 06:08:51;;;;;;;23.20;18.70;;;24.00;35.50;;;;;;5066613;28;20210;-78
2023/01/25 06:11:19;;;;;;;25.53;19.30;;;24.00;35.40;;;;;;5067030;28;20678;-69
2023/01/25 06:13:47;;;;;;;22.60;18.97;;;24.00;35.40;;;;;;5067125;28;20215;-69
2023/01/25 06:16:14;;;;;;;29.27;19.73;;;24.00;35.40;;;;;;5067106;28;20523;-67
2023/01/25 06:18:41;;;;;;;22.67;18.93;;;24.00;35.40;;;;;;5066097;28;20200;-67
2023/01/25 06:21:09;;;;;;;23.97;19.13;;;24.10;35.50;;;;;;5066726;28;20215;-73
2023/01/25 06:23:36;;;;;;;24.10;19.10;;;24.10;35.50;;;;;;5066493;28;20248;-67
2023/01/25 06:26:07;;;;;;;23.73;18.97;;;24.10;35.40;;;;;;5062039;28;20210;-67
2023/01/25 06:28:35;;;;;;;30.50;21.43;;;24.10;35.40;;;;;;5064450;28;20191;-67
2023/01/25 06:31:07;;;;;;;25.33;19.70;;;24.10;35.40;;;;;;5066364;28;20672;-67
2023/01/25 06:33:35;;;;;;;27.37;20.17;;;24.10;35.40;;;;;;5066608;28;20210;-68
2023/01/25 06:36:04;;;;;;;25.87;19.80;;;24.20;35.50;;;;;;5070517;28;20309;-70
2023/01/25 06:38:31;;;;;;;24.60;19.20;;;24.20;35.50;;;;;;5070896;28;20757;-74
2023/01/25 06:41:01;;;;;;;23.27;18.80;;;24.20;35.50;;;;;;5065895;28;20631;-69
2023/01/25 06:43:30;;;;;;;26.87;20.77;;;24.20;35.40;;;;;;5069164;28;20934;-74
2023/01/25 06:46:00;;;;;;;28.10;20.43;;;24.30;35.60;;;;;;5068995;28;20286;-67
2023/01/25 06:48:28;;;;;;;25.10;20.23;;;24.30;35.50;;;;;;5071264;28;20213;-68
2023/01/25 06:50:57;;;;;;;25.23;20.37;;;24.30;35.50;;;;;;5070808;28;20206;-72
2023/01/25 06:53:26;;;;;;;26.37;20.80;;;24.40;35.50;;;;;;5069996;28;20211;-68
2023/01/25 06:56:01;;;;;;;26.77;19.30;;;24.40;35.60;;;;;;5071454;28;20199;-67
2023/01/25 06:58:30;;;;;;;30.27;21.20;;;24.40;35.50;;;;;;5069759;28;20202;-66
2023/01/25 07:01:01;;;;;;;30.50;21.33;;;24.40;35.50;;;;;;5069742;28;20207;-69
2023/01/25 07:03:28;;;;;;;25.20;19.77;;;24.40;35.40;;;;;;5069629;28;20230;-67
2023/01/25 07:05:58;;;;;;;25.80;20.43;;;24.50;35.50;;;;;;5070747;28;20238;-70
2023/01/25 07:08:26;;;;;;;24.87;20.50;;;24.50;36.10;;;;;;5070693;28;20215;-69
2023/01/25 07:10:56;;;;;;;26.13;20.13;;;24.50;35.50;;;;;;5069736;28;20664;-67
2023/01/25 07:13:23;;;;;;;25.43;20.77;;;24.50;35.40;;;;;;5069520;28;20853;-67
2023/01/25 07:15:56;;;;;;;25.43;20.23;;;24.60;35.50;;;;;;5069831;28;20205;-69
2023/01/25 07:18:24;;;;;;;25.47;20.13;;;24.60;35.40;;;;;;5070711;28;20203;-72
2023/01/25 07:20:52;;;;;;;25.37;19.20;;;24.60;35.40;;;;;;5068401;28;20218;-66
2023/01/25 07:23:20;;;;;;;23.93;20.10;;;24.60;35.40;;;;;;5069527;28;20227;-70
2023/01/25 07:25:49;;;;;;;24.60;19.07;;;24.60;35.40;;;;;;5070026;28;20759;-67
2023/01/25 07:28:17;;;;;;;23.23;19.53;;;24.70;35.40;;;;;;5070304;28;20727;-66
2023/01/25 07:30:44;;;;;;;28.07;20.17;;;24.70;35.40;;;;;;5069247;28;20397;-70
2023/01/25 07:33:12;;;;;;;26.57;19.73;;;24.80;35.50;;;;;;5068555;28;20595;-72
2023/01/25 07:35:39;;;;;;;23.80;19.67;;;24.70;35.30;;;;;;5054008;28;20208;-68
2023/01/25 07:38:06;;;;;;;24.07;18.80;;;24.80;35.40;;;;;;5055971;28;20592;-67
2023/01/25 07:40:33;;;;;;;21.27;18.93;;;24.80;35.30;;;;;;5058674;28;20206;-67
2023/01/25 07:43:00;;;;;;;25.03;19.57;;;24.80;35.30;;;;;;5050618;28;20318;-68
2023/01/25 07:45:29;;;;;;;21.40;18.40;;;24.80;35.30;;;;;;5067205;28;20223;-73
2023/01/25 07:47:57;;;;;;;25.37;20.03;;;24.80;35.30;;;;;;5068852;28;20210;-66
2023/01/25 07:50:26;;;;;;;23.13;18.73;;;24.90;35.30;;;;;;5069703;28;20202;-66
2023/01/25 07:52:53;;;;;;;24.63;20.20;;;24.90;35.20;;;;;;5069363;28;20209;-66
2023/01/25 07:55:20;;;;;;;22.70;18.87;;;24.90;35.30;;;;;;5070079;28;20207;-67
2023/01/25 07:57:47;;;;;;;23.37;18.93;;;24.90;35.20;;;;;;5068598;28;20650;-69
2023/01/25 08:00:15;;;;;;;23.67;19.27;;;24.90;35.20;;;;;;5056622;28;20196;-66
2023/01/25 08:02:42;;;;;;;22.17;19.17;;;24.90;35.20;;;;;;5069067;28;20211;-66
2023/01/25 08:05:10;;;;;;;24.90;18.67;;;24.90;35.10;;;;;;5069442;28;20637;-66
2023/01/25 08:07:38;;;;;;;22.93;19.53;;;25.00;35.20;;;;;;5069973;28;20274;-66
2023/01/25 08:10:06;;;;;;;20.90;18.57;;;24.90;35.00;;;;;;5069426;28;20202;-67
2023/01/25 08:12:34;;;;;;;22.37;18.60;;;25.00;35.10;;;;;;5069459;28;20203;-66
2023/01/25 08:15:01;;;;;;;21.93;17.93;;;25.00;35.10;;;;;;5068312;28;20196;-71
2023/01/25 08:17:31;;;;;;;24.33;18.27;;;25.00;35.10;;;;;;5068784;28;20203;-66
2023/01/25 08:19:58;;;;;;;27.70;20.37;;;25.00;35.10;;;;;;5068671;28;20306;-67
2023/01/25 08:22:25;;;;;;;23.53;19.03;;;25.00;35.00;;;;;;5068028;28;20215;-65
2023/01/25 08:24:53;;;;;;;23.00;18.43;;;25.00;34.90;;;;;;5069105;28;20223;-65
2023/01/25 08:27:20;;;;;;;23.23;18.30;;;25.00;34.90;;;;;;5068510;28;20551;-70
2023/01/25 08:29:49;;;;;;;27.90;20.13;;;25.00;34.90;;;;;;5065835;28;20203;-66
2023/01/25 08:32:16;;;;;;;23.97;19.30;;;24.90;34.80;;;;;;5068765;28;20738;-66
2023/01/25 08:34:43;;;;;;;22.63;18.93;;;24.90;35.40;;;;;;5068884;28;20200;-66
2023/01/25 08:37:10;;;;;;;24.90;19.20;;;24.90;34.80;;;;;;5069063;28;20183;-67
2023/01/25 08:39:36;;;;;;;28.23;20.57;;;24.90;34.70;;;;;;5064367;28;20239;-67
2023/01/25 08:42:06;;;;;;;23.17;18.17;;;24.90;34.80;;;;;;5067396;28;20206;-66
2023/01/25 08:44:33;;;;;;;21.33;18.20;;;24.80;34.60;;;;;;5068320;28;20664;-65
2023/01/25 08:47:00;;;;;;;22.50;18.30;;;24.80;34.70;;;;;;5069032;28;20214;-66
2023/01/25 08:49:26;;;;;;;26.27;19.00;;;24.80;34.80;;;;;;5066634;28;20227;-66
2023/01/25 08:51:53;;;;;;;21.97;18.20;;;24.80;34.70;;;;;;5068957;28;20202;-68
2023/01/25 08:54:20;;;;;;;23.87;18.23;;;24.80;34.80;;;;;;5068735;28;20203;-66
2023/01/25 08:56:47;;;;;;;20.53;18.33;;;24.80;34.80;;;;;;5068883;28;20283;-66
2023/01/25 08:59:16;;;;;;;25.03;19.03;;;24.70;34.80;;;;;;5067289;28;20196;-67
2023/01/25 09:01:43;;;;;;;22.17;17.87;;;24.70;34.80;;;;;;5068541;28;20635;-67
2023/01/25 09:04:09;;;;;;;22.63;18.63;;;24.60;34.80;;;;;;5066325;28;21018;-69
2023/01/25 09:06:36;;;;;;;23.27;18.03;;;24.60;34.70;;;;;;5068547;28;20229;-66
2023/01/25 09:09:04;;;;;;;21.47;17.13;;;24.60;34.80;;;;;;5068780;28;20219;-69
2023/01/25 09:11:33;;;;;;;21.60;17.87;;;24.50;34.80;;;;;;5068377;28;20295;-66
2023/01/25 09:14:00;;;;;;;23.77;18.20;;;24.60;34.80;;;;;;5066845;28;20254;-66
2023/01/25 09:16:29;;;;;;;24.67;18.47;;;24.50;34.80;;;;;;5065481;28;20204;-66
2023/01/25 09:18:57;;;;;;;21.63;17.20;;;24.50;34.80;;;;;;5067310;28;20261;-66
2023/01/25 09:21:24;;;;;;;26.97;19.37;;;24.40;34.70;;;;;;5065791;28;20805;-67
2023/01/25 09:23:53;;;;;;;21.53;17.87;;;24.50;34.80;;;;;;5066578;28;20199;-65
2023/01/25 09:26:20;;;;;;;24.90;18.43;;;24.40;34.80;;;;;;5061251;28;20210;-66
2023/01/25 09:28:48;;;;;;;25.73;18.60;;;24.40;34.80;;;;;;5058579;28;20615;-66
2023/01/25 09:31:16;;;;;;;23.90;18.07;;;24.40;34.80;;;;;;5067840;28;20203;-66
2023/01/25 09:33:45;;;;;;;23.90;18.87;;;24.40;34.90;;;;;;5067879;28;20283;-69
2023/01/25 09:36:12;;;;;;;27.00;18.67;;;24.30;34.80;;;;;;5066967;28;20302;-66
2023/01/25 09:38:39;;;;;;;23.40;17.47;;;24.40;34.90;;;;;;5066806;28;20207;-72
2023/01/25 09:41:32;;;;;;;21.67;17.67;;;24.30;34.80;;;;;;5065521;28;20214;-67
2023/01/25 09:44:14;;;;;;;22.10;17.20;;;24.30;34.80;;;;;;5067287;28;20230;-66
2023/01/25 09:46:47;;;;;;;28.57;18.63;;;24.30;34.90;;;;;;5065029;28;20213;-70
2023/01/25 09:49:31;;;;;;;23.33;18.27;;;24.30;34.90;;;;;;5066654;28;20291;-67
2023/01/25 09:52:10;;;;;;;23.13;17.37;;;24.30;34.90;;;;;;5067682;28;20198;-69
2023/01/25 09:54:40;;;;;;;23.73;18.17;;;24.20;34.80;;;;;;5067867;28;20693;-71
2023/01/25 09:57:14;;;;;;;26.17;18.80;;;24.20;34.80;;;;;;5066322;28;20647;-66
2023/01/25 09:59:41;;;;;;;22.50;17.47;;;24.20;34.90;;;;;;5067412;28;20200;-66
2023/01/25 10:02:24;;;;;;;23.20;17.93;;;24.20;34.90;;;;;;5067654;28;20194;-66
2023/01/25 10:04:54;;;;;;;22.07;17.13;;;24.20;34.90;;;;;;5068133;28;20241;-67
2023/01/25 10:07:27;;;;;;;22.03;17.43;;;24.20;34.90;;;;;;5066760;28;20219;-66
2023/01/25 10:10:02;;;;;;;21.23;16.40;;;24.20;34.90;;;;;;5060537;28;20215;-66
2023/01/25 10:12:35;;;;;;;31.13;20.03;;;24.10;34.90;;;;;;5052267;28;20206;-73
2023/01/25 10:15:02;;;;;;;21.20;16.90;;;24.10;34.90;;;;;;5073151;28;20191;-66
2023/01/25 10:17:35;;;;;;;22.17;17.20;;;24.10;35.50;;;;;;5071812;28;20301;-66
2023/01/25 10:20:26;;;;;;;26.10;18.17;;;24.10;34.90;;;;;;5065505;28;20538;-66
2023/01/25 10:23:05;;;;;;;21.00;16.23;;;24.10;34.90;;;;;;5070868;28;20298;-72
2023/01/25 10:25:36;;;;;;;19.90;16.30;;;24.10;34.90;;;;;;5071086;28;20231;-66
2023/01/25 10:28:15;;;;;;;20.00;15.53;;;24.10;34.90;;;;;;5071313;28;20199;-67
2023/01/25 10:30:52;;;;;;;20.20;16.27;;;24.10;34.90;;;;;;5067318;28;20203;-66
2023/01/25 10:33:20;;;;;;;26.13;18.07;;;24.10;35.00;;;;;;5062746;28;20637;-69
2023/01/25 10:35:49;;;;;;;23.43;16.77;;;24.10;34.90;;;;;;5064901;28;20286;-69
2023/01/25 10:38:24;;;;;;;21.23;16.40;;;24.10;34.90;;;;;;5069121;28;20192;-66
2023/01/25 10:40:56;;;;;;;20.77;15.57;;;24.10;34.90;;;;;;5058032;28;20194;-67
2023/01/25 10:43:23;;;;;;;18.20;15.07;;;24.10;34.90;;;;;;5071388;28;20192;-67
2023/01/25 10:45:50;;;;;;;21.47;16.33;;;24.10;34.90;;;;;;5071421;28;20257;-69
2023/01/25 10:48:21;;;;;;;20.90;16.50;;;24.10;34.90;;;;;;5070987;28;20199;-67
2023/01/25 10:50:52;;;;;;;19.53;15.57;;;24.10;34.90;;;;;;5051475;28;20861;-66
2023/01/25 10:53:35;;;;;;;18.60;14.67;;;24.10;34.90;;;;;;5064864;28;20211;-66
2023/01/25 10:56:18;;;;;;;21.93;16.30;;;24.10;35.00;;;;;;5064235;28;20776;-68
2023/01/25 10:58:46;;;;;;;20.70;15.90;;;24.10;34.90;;;;;;5071016;28;20237;-66
2023/01/25 11:01:26;;;;;;;22.43;17.13;;;24.00;34.90;;;;;;5067185;28;20205;-67
2023/01/25 11:03:53;;;;;;;21.23;16.33;;;24.00;34.80;;;;;;5069801;28;20239;-69
2023/01/25 11:06:32;;;;;;;21.10;16.47;;;24.00;34.90;;;;;;5067949;28;20235;-66
2023/01/25 11:08:59;;;;;;;20.57;16.43;;;24.00;34.80;;;;;;5069271;28;20199;-69
2023/01/25 11:11:31;;;;;;;21.63;17.23;;;24.00;34.80;;;;;;5069329;28;20194;-76
2023/01/25 11:13:58;;;;;;;27.80;17.67;;;24.10;34.90;;;;;;5070595;28;20222;-75
2023/01/25 11:16:30;;;;;;;19.47;15.37;;;24.00;34.90;;;;;;5068868;28;20282;-71
2023/01/25 11:18:58;;;;;;;23.03;16.00;;;24.00;34.80;;;;;;5065348;28;20188;-66
2023/01/25 11:21:27;;;;;;;28.37;18.50;;;24.00;34.80;;;;;;5067702;28;20218;-66
2023/01/25 11:24:04;;;;;;;21.03;16.17;;;24.10;34.90;;;;;;5067267;28;20195;-67
2023/01/25 11:26:32;;;;;;;20.13;16.07;;;24.10;34.90;;;;;;5069446;28;20230;-68
2023/01/25 11:29:10;;;;;;;22.90;16.93;;;24.10;34.90;;;;;;5070587;28;20543;-66
2023/01/25 11:31:40;;;;;;;24.97;16.53;;;24.10;34.90;;;;;;5066612;28;20198;-73
2023/01/25 11:34:10;;;;;;;25.40;16.80;;;24.10;35.00;;;;;;5070278;28;20208;-67
2023/01/25 11:36:49;;;;;;;24.43;16.90;;;24.10;34.90;;;;;;5070405;28;20277;-73
2023/01/25 11:39:34;;;;;;;19.93;15.30;;;24.10;34.90;;;;;;5070227;28;20213;-69
2023/01/25 11:42:14;;;;;;;21.27;15.63;;;24.00;34.80;;;;;;5070166;28;20207;-74
2023/01/25 11:45:02;;;;;;;20.57;16.53;;;24.00;34.80;;;;;;5069634;28;20714;-72
2023/01/25 11:47:44;;;;;;;19.00;15.03;;;24.00;34.80;;;;;;5070016;28;20211;-75
2023/01/25 11:50:16;;;;;;;22.07;15.63;;;24.00;34.80;;;;;;5069463;28;20207;-66
2023/01/25 11:53:15;;;;;;;20.63;15.63;;;24.00;34.80;;;;;;5070365;28;20274;-66
2023/01/25 11:55:49;;;;;;;22.13;14.97;;;24.10;34.90;;;;;;5068995;28;20294;-76
2023/01/25 11:58:45;;;;;;;20.83;15.67;;;24.00;34.70;;;;;;5069203;28;20222;-73
2023/01/25 12:01:21;;;;;;;26.87;17.47;;;24.00;34.90;;;;;;5060671;28;20280;-82
2023/01/25 12:04:30;;;;;;;24.23;16.53;;;24.00;34.90;;;;;;5067129;28;20706;-88
2023/01/25 12:07:02;;;;;;;23.27;15.43;;;24.00;34.80;;;;;;5047768;28;20214;-89
2023/01/25 12:09:48;;;;;;;21.70;15.53;;;24.00;34.90;;;;;;5049627;28;20710;-86
2023/01/25 12:12:25;;;;;;;21.87;15.27;;;24.00;34.90;;;;;;5068283;28;20663;-78
2023/01/25 12:15:08;;;;;;;22.63;16.30;;;24.00;34.90;;;;;;5067330;28;20659;-66
2023/01/25 12:17:56;;;;;;;29.37;16.70;;;24.00;34.80;;;;;;5068307;28;20290;-78
2023/01/25 12:20:44;;;;;;;22.97;15.70;;;23.90;34.70;;;;;;5066628;28;20691;-77
2023/01/25 12:23:32;;;;;;;22.80;15.33;;;24.00;34.80;;;;;;5069043;28;20221;-79
2023/01/25 12:26:18;;;;;;;19.83;14.87;;;23.90;34.70;;;;;;5066298;28;20211;-80
2023/01/25 12:28:54;;;;;;;21.90;16.07;;;23.90;34.70;;;;;;5063817;28;20221;-82
2023/01/25 12:31:25;;;;;;;22.27;15.73;;;23.90;34.70;;;;;;5068370;28;20675;-69
2023/01/25 12:33:56;;;;;;;21.37;15.60;;;23.90;34.70;;;;;;5066873;28;20191;-66
2023/01/25 12:36:33;;;;;;;24.97;16.87;;;23.90;34.70;;;;;;5067993;28;20285;-66
2023/01/25 12:39:04;;;;;;;19.50;15.50;;;23.90;34.70;;;;;;5067253;28;20214;-69
2023/01/25 12:41:38;;;;;;;20.97;15.73;;;24.00;34.80;;;;;;5068460;28;20203;-66
2023/01/25 12:44:14;;;;;;;19.83;14.97;;;24.00;34.80;;;;;;5067933;28;20780;-65